Time;durP1;ratioP1;P1;durP2;ratioP2;P2;SDS_P1;SDS_P2;PMS_P1;PMS_P2;Temp;Humidity;BMP_temperature;BMP_pressure;BME280_temperature;BME280_humidity;BME280_pressure;Samples;Min_cycle;Max_cycle;Signal;HPM_P1;HPM_P2
2022/12/06 00:00:40;;;;;;;10.52;3.42;;;5.50;99.90;;;;;;5073894;28;20044;-71
2022/12/06 00:03:06;;;;;;;9.82;3.70;;;5.50;99.90;;;;;;5082826;28;20044;-71
2022/12/06 00:05:32;;;;;;;10.25;3.83;;;5.50;99.90;;;;;;5076621;28;20546;-71
2022/12/06 00:07:58;;;;;;;13.10;3.58;;;5.50;99.90;;;;;;5076469;28;20095;-72
2022/12/06 00:10:24;;;;;;;8.45;3.83;;;5.50;99.90;;;;;;5090729;28;20113;-70
2022/12/06 00:12:50;;;;;;;9.38;3.97;;;5.60;99.90;;;;;;5084433;28;20128;-71
2022/12/06 00:15:16;;;;;;;;;;;5.50;99.90;;;;;;5071831;28;20060;-71
2022/12/06 00:17:42;;;;;;;8.90;3.88;;;5.60;99.90;;;;;;5092900;28;19920;-71
2022/12/06 00:20:08;;;;;;;9.02;3.75;;;5.60;99.90;;;;;;5082806;28;20048;-70
2022/12/06 00:22:34;;;;;;;10.00;3.90;;;5.50;99.90;;;;;;5091542;28;20102;-71
2022/12/06 00:25:00;;;;;;;12.25;3.65;;;5.60;99.90;;;;;;5080170;28;20099;-72
2022/12/06 00:27:26;;;;;;;8.73;3.22;;;5.60;99.90;;;;;;5065116;28;20525;-71
2022/12/06 00:29:51;;;;;;;9.60;3.25;;;5.60;99.90;;;;;;5081620;28;20040;-71
2022/12/06 00:32:17;;;;;;;9.80;3.47;;;5.50;99.90;;;;;;5092344;28;20654;-71
2022/12/06 00:34:43;;;;;;;9.40;3.33;;;5.60;99.90;;;;;;5091574;28;20072;-71
2022/12/06 00:37:09;;;;;;;11.82;3.83;;;5.60;99.90;;;;;;5092260;28;20556;-71
2022/12/06 00:39:35;;;;;;;8.80;3.20;;;5.60;99.90;;;;;;5092405;28;20127;-71
2022/12/06 00:42:00;;;;;;;9.15;3.05;;;5.60;99.90;;;;;;5089799;28;20048;-72
2022/12/06 00:44:26;;;;;;;6.05;2.67;;;5.60;99.90;;;;;;5072520;28;20751;-71
2022/12/06 00:46:52;;;;;;;8.90;3.38;;;5.60;99.90;;;;;;5072470;28;20078;-71
2022/12/06 00:49:18;;;;;;;9.45;4.05;;;5.60;99.90;;;;;;5085100;28;20106;-71
2022/12/06 00:51:43;;;;;;;6.90;2.83;;;5.60;99.90;;;;;;5086760;28;20048;-71
2022/12/06 00:54:13;;;;;;;13.23;3.95;;;5.60;99.90;;;;;;5090891;28;20059;-71
2022/12/06 00:56:38;;;;;;;8.98;3.10;;;5.60;99.90;;;;;;5091994;28;20044;-71
2022/12/06 00:59:05;;;;;;;11.70;3.10;;;5.60;99.90;;;;;;5075200;28;20053;-71
2022/12/06 01:01:32;;;;;;;7.57;3.03;;;5.60;99.90;;;;;;5072197;28;20102;-71
2022/12/06 01:04:00;;;;;;;8.65;2.72;;;5.60;99.90;;;;;;5054396;28;20520;-71
2022/12/06 01:06:29;;;;;;;6.13;2.75;;;5.60;99.90;;;;;;5071686;28;20052;-71
2022/12/06 01:08:58;;;;;;;8.13;2.42;;;5.60;99.90;;;;;;5054152;28;20084;-71
2022/12/06 01:11:25;;;;;;;5.70;2.38;;;5.60;99.90;;;;;;5080699;28;20048;-71
2022/12/06 01:13:52;;;;;;;11.73;2.83;;;5.60;99.90;;;;;;5092236;28;20545;-71
2022/12/06 01:16:24;;;;;;;6.10;3.28;;;5.70;99.90;;;;;;5091681;28;20044;-71
2022/12/06 01:18:55;;;;;;;9.95;3.13;;;5.50;99.90;;;;;;5092002;28;20513;-71
2022/12/06 01:21:21;;;;;;;10.43;2.60;;;5.60;99.90;;;;;;5089585;28;20118;-71
2022/12/06 01:23:48;;;;;;;7.22;3.03;;;5.60;99.90;;;;;;5091972;28;20130;-71
2022/12/06 01:26:17;;;;;;;8.60;3.00;;;5.50;99.90;;;;;;5091326;28;20120;-71
2022/12/06 01:28:43;;;;;;;7.18;2.85;;;5.60;99.90;;;;;;5092186;28;20048;-71
2022/12/06 01:31:08;;;;;;;;;;;5.50;99.90;;;;;;5091741;28;20036;-71
2022/12/06 01:33:34;;;;;;;6.88;2.78;;;5.60;99.90;;;;;;5091257;28;20433;-71
2022/12/06 01:36:00;;;;;;;8.35;2.78;;;5.50;99.90;;;;;;5090834;28;20054;-71
2022/12/06 01:38:26;;;;;;;7.95;2.70;;;5.80;99.90;;;;;;5091093;28;20131;-71
2022/12/06 01:40:51;;;;;;;7.93;2.78;;;5.60;99.90;;;;;;5091266;28;20405;-71
2022/12/06 01:43:38;;;;;;;9.23;3.67;;;5.50;99.90;;;;;;5091527;28;20055;-71
2022/12/06 01:46:29;;;;;;;7.90;2.80;;;5.50;99.90;;;;;;5091601;28;20064;-72
2022/12/06 01:49:02;;;;;;;7.93;3.45;;;5.50;99.90;;;;;;5091740;28;20059;-71
2022/12/06 01:51:28;;;;;;;12.15;2.83;;;5.40;99.90;;;;;;5090721;28;20040;-71
2022/12/06 01:53:53;;;;;;;;;;;5.50;99.90;;;;;;5091522;28;20056;-71
2022/12/06 01:56:20;;;;;;;11.82;3.20;;;5.40;99.90;;;;;;5089914;28;19927;-71
2022/12/06 01:58:48;;;;;;;7.97;3.50;;;5.40;99.90;;;;;;5091290;28;20509;-71
2022/12/06 02:01:14;;;;;;;9.93;2.83;;;5.40;99.90;;;;;;5091129;28;20083;-71
2022/12/06 02:03:41;;;;;;;12.30;3.30;;;5.40;99.90;;;;;;5091600;28;20094;-71
2022/12/06 02:06:08;;;;;;;7.72;2.47;;;5.40;99.90;;;;;;5089583;28;20040;-72
2022/12/06 02:08:35;;;;;;;13.15;3.00;;;5.40;99.90;;;;;;5083002;28;20568;-71
2022/12/06 02:11:02;;;;;;;8.18;2.47;;;5.40;99.90;;;;;;5084560;28;20118;-71
2022/12/06 02:13:30;;;;;;;7.63;2.85;;;5.40;99.90;;;;;;5076267;28;20044;-70
2022/12/06 02:16:11;;;;;;;7.93;2.53;;;5.40;99.90;;;;;;5079193;28;20144;-71
2022/12/06 02:18:58;;;;;;;8.38;2.92;;;5.40;99.90;;;;;;5052844;28;20066;-71
2022/12/06 02:21:29;;;;;;;;;;;5.30;99.90;;;;;;5069889;28;20109;-71
2022/12/06 02:24:01;;;;;;;7.25;2.30;;;5.40;99.90;;;;;;5070303;28;19978;-71
2022/12/06 02:26:42;;;;;;;6.60;2.40;;;5.40;99.90;;;;;;5076661;28;20374;-71
2022/12/06 02:29:32;;;;;;;8.60;2.53;;;5.40;99.90;;;;;;5090755;28;20151;-71
2022/12/06 02:32:14;;;;;;;9.95;2.70;;;5.40;99.90;;;;;;5090982;28;20186;-71
2022/12/06 02:34:54;;;;;;;5.43;2.40;;;5.40;99.90;;;;;;5089731;28;20126;-71
2022/12/06 02:37:33;;;;;;;9.38;2.40;;;5.40;99.90;;;;;;5090569;28;20052;-71
2022/12/06 02:40:16;;;;;;;6.10;2.70;;;5.40;99.90;;;;;;5090030;28;20097;-71
2022/12/06 02:43:05;;;;;;;10.93;3.10;;;5.40;99.90;;;;;;5090927;28;20078;-71
2022/12/06 02:45:36;;;;;;;5.25;2.35;;;5.40;99.90;;;;;;5088966;28;20119;-71
2022/12/06 02:48:06;;;;;;;5.38;2.75;;;5.40;99.90;;;;;;5090790;28;20059;-71
2022/12/06 02:50:36;;;;;;;6.57;2.30;;;5.40;99.90;;;;;;5088197;28;20054;-71
2022/12/06 02:53:03;;;;;;;6.15;2.47;;;5.40;99.90;;;;;;5090410;28;20058;-71
2022/12/06 02:55:30;;;;;;;7.43;2.28;;;5.40;99.90;;;;;;5089134;28;20067;-71
2022/12/06 02:57:56;;;;;;;8.10;2.25;;;5.30;99.90;;;;;;5090623;28;20130;-71
2022/12/06 03:00:36;;;;;;;9.57;2.80;;;5.40;99.90;;;;;;5089768;28;20466;-71
2022/12/06 03:03:21;;;;;;;5.20;2.25;;;5.40;99.90;;;;;;5090660;28;20048;-71
2022/12/06 03:06:02;;;;;;;10.10;2.40;;;5.40;99.90;;;;;;5089430;28;20109;-71
2022/12/06 03:08:35;;;;;;;4.38;1.98;;;5.40;99.90;;;;;;5071585;28;20052;-71
2022/12/06 03:11:02;;;;;;;10.65;2.55;;;5.40;99.90;;;;;;5088845;28;20812;-71
2022/12/06 03:14:17;;;;;;;7.75;2.00;;;5.30;99.90;;;;;;5089968;28;20078;-71
2022/12/06 03:16:55;;;;;;;11.27;2.50;;;5.30;99.90;;;;;;4991410;28;20187;-71
2022/12/06 03:19:24;;;;;;;5.30;2.20;;;5.30;99.90;;;;;;5078980;28;20067;-71
2022/12/06 03:22:34;;;;;;;5.97;2.15;;;5.30;99.90;;;;;;5089565;28;20044;-71
2022/12/06 03:25:02;;;;;;;4.43;2.08;;;5.30;99.90;;;;;;5089386;28;20499;-71
2022/12/06 03:27:30;;;;;;;6.50;2.00;;;5.30;99.90;;;;;;5089742;28;20078;-71
2022/12/06 03:30:00;;;;;;;5.35;1.90;;;5.30;99.90;;;;;;5089884;28;20072;-71
2022/12/06 03:32:31;;;;;;;3.80;2.03;;;5.20;99.90;;;;;;5071322;28;20097;-71
2022/12/06 03:35:02;;;;;;;7.38;2.33;;;5.20;99.90;;;;;;5087964;28;20047;-71
2022/12/06 03:37:31;;;;;;;7.43;1.90;;;5.20;99.90;;;;;;5089683;28;20070;-71
2022/12/06 03:40:11;;;;;;;7.72;1.98;;;5.20;99.90;;;;;;5089378;28;20055;-71
2022/12/06 03:42:40;;;;;;;9.10;2.13;;;5.20;99.90;;;;;;5088578;28;20090;-70
2022/12/06 03:45:08;;;;;;;3.28;1.67;;;5.30;99.90;;;;;;5089686;28;20083;-71
2022/12/06 03:47:45;;;;;;;9.13;1.80;;;5.20;99.90;;;;;;5089159;28;20560;-71
2022/12/06 03:50:24;;;;;;;10.98;2.47;;;5.20;99.90;;;;;;5088822;28;20044;-71
2022/12/06 03:52:51;;;;;;;6.57;1.70;;;5.10;99.90;;;;;;5089538;28;20087;-71
2022/12/06 03:55:18;;;;;;;6.38;1.88;;;5.10;99.90;;;;;;5088854;28;20526;-72
2022/12/06 03:57:43;;;;;;;5.72;1.77;;;5.20;99.90;;;;;;5068888;28;20117;-71
2022/12/06 04:00:10;;;;;;;4.28;1.80;;;5.30;99.90;;;;;;5089617;28;20040;-71
2022/12/06 04:02:36;;;;;;;8.98;2.30;;;5.10;99.90;;;;;;5089433;28;20676;-70
2022/12/06 04:05:02;;;;;;;4.32;1.60;;;5.10;99.90;;;;;;5068670;28;20044;-71
2022/12/06 04:07:28;;;;;;;4.50;2.10;;;5.10;99.90;;;;;;5069221;28;20052;-71
2022/12/06 04:10:02;;;;;;;9.52;1.90;;;5.10;99.90;;;;;;5076214;28;20051;-71
2022/12/06 04:15:18;;;;;;;3.97;1.95;;;5.10;99.90;;;;;;5089381;28;20739;-72
2022/12/06 04:23:02;;;;;;;5.53;1.63;;;5.10;99.90;;;;;;5087251;28;20055;-71
2022/12/06 04:23:20;;;;;;;5.75;2.08;;;5.10;99.90;;;;;;5071084;28;20409;-71
2022/12/06 04:25:46;;;;;;;2.72;1.65;;;5.10;99.90;;;;;;5089229;28;20182;-71
2022/12/06 04:39:09;;;;;;;2.50;1.40;;;5.10;99.90;;;;;;5092681;28;20546;-71
2022/12/06 04:44:19;;;;;;;3.38;1.50;;;5.10;99.90;;;;;;5092808;28;20059;-71
2022/12/06 04:46:45;;;;;;;2.42;1.30;;;5.10;99.90;;;;;;5074658;28;20048;-71
2022/12/06 04:49:10;;;;;;;3.33;1.40;;;5.10;99.90;;;;;;5073636;28;20500;-72
2022/12/06 04:51:36;;;;;;;3.55;2.00;;;5.00;99.90;;;;;;5040730;28;20048;-70
2022/12/06 04:54:02;;;;;;;2.65;1.40;;;5.00;99.90;;;;;;5092172;28;20091;-71
2022/12/06 04:56:28;;;;;;;2.10;1.40;;;5.00;99.90;;;;;;5073928;28;20056;-71
2022/12/06 04:58:53;;;;;;;3.17;1.50;;;5.00;99.90;;;;;;5092984;28;20048;-71
2022/12/06 05:01:19;;;;;;;3.70;1.70;;;5.00;99.90;;;;;;5092596;28;20485;-71
2022/12/06 05:03:45;;;;;;;3.28;1.55;;;5.00;99.90;;;;;;5092314;28;20048;-71
2022/12/06 05:06:11;;;;;;;2.85;1.40;;;5.10;99.90;;;;;;5073498;28;20113;-71
2022/12/06 05:08:36;;;;;;;6.03;1.85;;;5.00;99.90;;;;;;5091635;28;20044;-71
2022/12/06 05:11:02;;;;;;;2.88;1.40;;;5.00;99.90;;;;;;5091286;28;20058;-71
2022/12/06 05:13:28;;;;;;;4.10;1.60;;;5.00;99.90;;;;;;5078185;28;20464;-71
2022/12/06 05:16:00;;;;;;;3.45;1.50;;;5.00;99.90;;;;;;5070574;28;20049;-71
2022/12/06 05:18:25;;;;;;;3.53;1.45;;;4.90;99.90;;;;;;5072084;28;20055;-72
2022/12/06 05:21:20;;;;;;;3.97;1.48;;;5.00;99.90;;;;;;5069826;28;20048;-71
2022/12/06 05:23:46;;;;;;;4.78;1.35;;;4.90;99.90;;;;;;5052659;28;20824;-71
2022/12/06 05:26:13;;;;;;;;;;;4.90;99.90;;;;;;5072110;28;20056;-71
2022/12/06 05:28:39;;;;;;;5.25;1.60;;;4.80;99.90;;;;;;5071661;28;19920;-71
2022/12/06 05:31:05;;;;;;;2.22;1.50;;;4.80;99.90;;;;;;5071669;28;20055;-71
2022/12/06 05:33:31;;;;;;;6.72;1.65;;;4.80;99.90;;;;;;5076226;28;20482;-71
2022/12/06 05:35:57;;;;;;;4.97;1.75;;;4.80;99.90;;;;;;5090821;28;20048;-71
2022/12/06 05:38:23;;;;;;;4.13;1.60;;;4.70;99.90;;;;;;5070967;28;20104;-71
2022/12/06 05:40:49;;;;;;;3.60;1.63;;;4.70;99.90;;;;;;5067746;28;20048;-71
2022/12/06 05:43:15;;;;;;;3.08;1.50;;;4.60;99.90;;;;;;5090958;28;20097;-71
2022/12/06 05:45:41;;;;;;;3.58;1.45;;;4.60;99.90;;;;;;5090911;28;20468;-71
2022/12/06 05:48:07;;;;;;;3.55;1.50;;;4.60;99.90;;;;;;5091851;28;20412;-70
2022/12/06 05:50:33;;;;;;;5.90;1.90;;;4.60;99.90;;;;;;5090187;28;20044;-71
2022/12/06 05:52:59;;;;;;;;;;;4.60;99.90;;;;;;5073953;28;20090;-71
2022/12/06 05:55:26;;;;;;;6.20;1.60;;;5.00;99.90;;;;;;5090197;28;20392;-70
2022/12/06 05:57:52;;;;;;;3.83;1.35;;;4.60;99.90;;;;;;5091033;28;20044;-71
2022/12/06 06:00:18;;;;;;;3.33;1.63;;;4.50;99.90;;;;;;5091099;28;20112;-71
2022/12/06 06:02:45;;;;;;;3.08;1.48;;;4.50;99.90;;;;;;5091144;28;20048;-71
2022/12/06 06:05:11;;;;;;;2.58;1.30;;;4.60;99.90;;;;;;5090304;28;20066;-71
2022/12/06 06:07:37;;;;;;;7.72;2.03;;;4.60;99.90;;;;;;5091064;28;20048;-71
2022/12/06 06:10:05;;;;;;;2.90;1.50;;;4.50;99.90;;;;;;5090610;28;20055;-71
2022/12/06 06:12:30;;;;;;;4.03;1.92;;;4.50;99.90;;;;;;5072709;28;20067;-72
2022/12/06 06:14:56;;;;;;;5.35;1.90;;;4.70;99.90;;;;;;5091023;28;20040;-71
2022/12/06 06:17:23;;;;;;;3.83;1.80;;;4.50;99.90;;;;;;5091421;28;20063;-71
2022/12/06 06:19:49;;;;;;;7.82;1.85;;;4.50;99.90;;;;;;5088524;28;20481;-71
2022/12/06 06:22:15;;;;;;;6.85;1.92;;;4.60;99.90;;;;;;5091079;28;20052;-71
2022/12/06 06:24:41;;;;;;;4.40;1.70;;;4.60;99.90;;;;;;5090243;28;20572;-71
2022/12/06 06:27:07;;;;;;;;;;;4.50;99.90;;;;;;5090161;28;20054;-71
2022/12/06 06:29:33;;;;;;;4.55;1.77;;;4.60;99.90;;;;;;5090528;28;19939;-72
2022/12/06 06:31:58;;;;;;;7.15;1.83;;;4.60;99.90;;;;;;5090907;28;20058;-71
2022/12/06 06:34:25;;;;;;;7.50;2.38;;;4.50;99.90;;;;;;5089916;28;20144;-71
2022/12/06 06:36:50;;;;;;;;;;;4.50;99.90;;;;;;5090750;28;20121;-71
2022/12/06 06:39:17;;;;;;;3.35;2.13;;;4.50;99.90;;;;;;5072643;28;20364;-71
2022/12/06 06:41:44;;;;;;;5.65;2.05;;;4.50;99.90;;;;;;5089956;28;20233;-71
2022/12/06 06:44:10;;;;;;;6.28;2.28;;;4.70;99.90;;;;;;5090275;28;20121;-71
2022/12/06 06:46:35;;;;;;;4.38;1.73;;;4.40;99.90;;;;;;5090475;28;20056;-72
2022/12/06 06:49:01;;;;;;;6.35;2.28;;;4.40;99.90;;;;;;5072311;28;20051;-71
2022/12/06 06:51:27;;;;;;;4.28;1.80;;;4.40;99.90;;;;;;5089837;28;20400;-71
2022/12/06 06:53:52;;;;;;;7.43;2.30;;;4.40;99.90;;;;;;5089290;28;20535;-71
2022/12/06 06:56:19;;;;;;;4.70;2.17;;;4.30;99.90;;;;;;5089561;28;20090;-70
2022/12/06 06:58:45;;;;;;;5.57;2.25;;;4.30;99.90;;;;;;5090167;28;20091;-71
2022/12/06 07:01:17;;;;;;;6.80;2.30;;;4.40;99.90;;;;;;5072151;28;20044;-71
2022/12/06 07:03:43;;;;;;;6.45;1.90;;;4.30;99.90;;;;;;5071156;28;20328;-71
2022/12/06 07:06:09;;;;;;;3.33;1.70;;;4.30;99.90;;;;;;5089297;28;20553;-71
2022/12/06 07:08:36;;;;;;;4.05;1.85;;;4.30;99.90;;;;;;5072077;28;20397;-71
2022/12/06 07:11:02;;;;;;;7.45;2.67;;;4.30;99.90;;;;;;5089622;28;20040;-71
2022/12/06 07:13:29;;;;;;;4.35;1.90;;;4.30;99.90;;;;;;5090480;28;20052;-70
2022/12/06 07:15:57;;;;;;;3.90;1.85;;;4.30;99.90;;;;;;5089546;28;20067;-71
2022/12/06 07:18:22;;;;;;;3.85;1.88;;;4.30;99.90;;;;;;5090244;28;20106;-71
2022/12/06 07:20:56;;;;;;;5.28;1.98;;;4.20;99.90;;;;;;5070890;28;20040;-71
2022/12/06 07:23:23;;;;;;;3.60;1.90;;;4.30;99.90;;;;;;5089954;28;20047;-71
2022/12/06 07:26:05;;;;;;;7.50;2.22;;;4.30;99.90;;;;;;5088593;28;20754;-71
2022/12/06 07:28:38;;;;;;;3.70;1.80;;;4.20;99.90;;;;;;5052580;28;20083;-71
2022/12/06 07:31:13;;;;;;;3.60;2.00;;;4.50;99.90;;;;;;5069594;28;20091;-71
2022/12/06 07:33:39;;;;;;;4.30;1.77;;;4.20;99.90;;;;;;5070023;28;20079;-71
2022/12/06 07:36:06;;;;;;;6.30;2.10;;;4.20;99.90;;;;;;5086073;28;20063;-71
2022/12/06 07:38:31;;;;;;;5.00;1.88;;;4.20;99.90;;;;;;5071415;28;20059;-72
2022/12/06 07:44:59;;;;;;;3.70;1.90;;;4.10;99.90;;;;;;5071141;28;20044;-71
2022/12/06 07:46:32;;;;;;;6.55;2.58;;;4.10;99.90;;;;;;5088482;28;20048;-70
2022/12/06 07:48:57;;;;;;;4.40;1.88;;;4.10;99.90;;;;;;5088367;28;20445;-72
2022/12/06 07:51:23;;;;;;;3.83;1.60;;;4.10;99.90;;;;;;5089174;28;20048;-71
2022/12/06 07:53:49;;;;;;;5.38;2.03;;;4.00;99.90;;;;;;5088260;28;20056;-72
2022/12/06 07:56:14;;;;;;;5.47;2.08;;;3.90;99.90;;;;;;5089275;28;20084;-71
2022/12/06 07:58:40;;;;;;;4.25;2.00;;;3.90;99.90;;;;;;5089920;28;20101;-71
2022/12/06 08:01:06;;;;;;;4.40;1.90;;;3.90;99.90;;;;;;5088228;28;20099;-71
2022/12/06 08:03:31;;;;;;;5.80;2.15;;;3.80;99.90;;;;;;5071759;28;20105;-71
2022/12/06 08:05:57;;;;;;;5.20;2.30;;;3.80;99.90;;;;;;5089112;28;20055;-71
2022/12/06 08:08:23;;;;;;;5.18;2.40;;;3.70;99.90;;;;;;5092919;28;20529;-71
2022/12/06 08:10:48;;;;;;;5.75;2.42;;;3.70;99.90;;;;;;5092359;28;20046;-71
2022/12/06 08:13:14;;;;;;;6.63;2.25;;;3.70;99.90;;;;;;5093773;28;20048;-71
2022/12/06 08:15:40;;;;;;;4.30;1.90;;;3.70;99.90;;;;;;5092504;28;20044;-72
2022/12/06 08:18:05;;;;;;;5.53;1.95;;;3.60;99.90;;;;;;5074490;28;20046;-71
2022/12/06 08:20:31;;;;;;;3.92;2.13;;;3.60;99.90;;;;;;5074365;28;20126;-71
2022/12/06 08:22:56;;;;;;;4.75;2.45;;;3.60;99.90;;;;;;5092621;28;20087;-71
2022/12/06 08:25:22;;;;;;;4.63;2.33;;;3.50;99.90;;;;;;5092957;28;20052;-71
2022/12/06 08:27:48;;;;;;;8.68;2.42;;;3.50;99.90;;;;;;5092998;28;20054;-71
2022/12/06 08:30:13;;;;;;;4.68;2.17;;;3.50;99.90;;;;;;5093142;28;20136;-71
2022/12/06 08:32:39;;;;;;;6.05;2.55;;;3.40;99.90;;;;;;5092526;28;20400;-70
2022/12/06 08:35:05;;;;;;;2.80;1.95;;;3.40;99.90;;;;;;5090726;28;20071;-70
2022/12/06 08:37:33;;;;;;;4.53;2.03;;;3.40;99.90;;;;;;5093258;28;20481;-72
2022/12/06 08:39:59;;;;;;;6.22;2.00;;;3.50;99.90;;;;;;5092230;28;20056;-70
2022/12/06 08:42:24;;;;;;;5.15;2.55;;;3.40;99.90;;;;;;5092900;28;20097;-70
2022/12/06 08:44:53;;;;;;;9.18;2.13;;;3.50;99.90;;;;;;5089762;28;20089;-71
2022/12/06 08:47:18;;;;;;;9.18;2.33;;;3.30;99.90;;;;;;5071985;28;20055;-73
2022/12/06 08:49:44;;;;;;;11.13;2.55;;;3.30;99.90;;;;;;5090938;28;20042;-70
2022/12/06 08:52:10;;;;;;;5.28;2.47;;;3.30;99.90;;;;;;5072280;28;20104;-71
2022/12/06 08:54:36;;;;;;;8.10;2.60;;;3.50;99.90;;;;;;5090294;28;20074;-71
2022/12/06 08:57:03;;;;;;;5.13;2.15;;;3.50;99.90;;;;;;5090911;28;20051;-72
2022/12/06 08:59:28;;;;;;;7.40;2.75;;;3.70;99.90;;;;;;5091205;28;20036;-71
2022/12/06 09:01:54;;;;;;;7.65;2.70;;;3.50;99.90;;;;;;5091203;28;20048;-70
2022/12/06 09:04:20;;;;;;;5.28;2.38;;;3.60;99.90;;;;;;5090232;28;20463;-72
2022/12/06 09:06:46;;;;;;;5.95;2.40;;;3.60;99.90;;;;;;5072060;28;20047;-71
2022/12/06 09:09:14;;;;;;;4.70;2.22;;;3.60;99.90;;;;;;5088507;28;20509;-70
2022/12/06 09:11:40;;;;;;;7.90;2.60;;;3.80;99.90;;;;;;5090116;28;20044;-71
2022/12/06 09:14:08;;;;;;;7.30;2.20;;;3.80;99.90;;;;;;5088751;28;20044;-71
2022/12/06 09:16:34;;;;;;;4.03;2.20;;;4.00;99.90;;;;;;5089854;28;20796;-71
2022/12/06 09:19:00;;;;;;;6.55;2.10;;;3.90;99.90;;;;;;5067430;28;20093;-72
2022/12/06 09:21:31;;;;;;;7.28;2.78;;;4.00;99.90;;;;;;5089221;28;20044;-72
2022/12/06 09:23:58;;;;;;;9.07;2.65;;;4.10;99.90;;;;;;5089434;28;20078;-72
2022/12/06 09:26:24;;;;;;;6.10;2.40;;;4.20;99.90;;;;;;5088617;28;20138;-72
2022/12/06 09:28:52;;;;;;;6.93;2.83;;;4.30;99.90;;;;;;5083470;28;20102;-71
2022/12/06 09:31:18;;;;;;;5.40;2.50;;;4.40;99.90;;;;;;5071400;28;20040;-72
2022/12/06 09:33:44;;;;;;;6.95;2.67;;;4.40;99.90;;;;;;5079323;28;20503;-70
2022/12/06 09:36:18;;;;;;;7.93;2.70;;;4.50;99.90;;;;;;5084111;28;20053;-72
2022/12/06 09:38:46;;;;;;;3.95;2.00;;;4.70;99.90;;;;;;5054308;28;20055;-75
2022/12/06 09:41:30;;;;;;;5.63;1.83;;;4.60;99.90;;;;;;5071664;28;20615;-74
2022/12/06 09:44:10;;;;;;;4.63;1.88;;;4.70;99.90;;;;;;5078108;28;20056;-73
2022/12/06 09:46:39;;;;;;;3.85;2.08;;;4.80;99.90;;;;;;5092174;28;20048;-73
2022/12/06 09:49:11;;;;;;;5.72;2.17;;;5.00;99.90;;;;;;5089948;28;20130;-70
2022/12/06 09:51:54;;;;;;;8.27;2.42;;;5.10;99.90;;;;;;5088671;28;20131;-71
2022/12/06 09:54:47;;;;;;;3.85;2.10;;;5.30;99.90;;;;;;5053410;28;20088;-70
2022/12/06 09:57:36;;;;;;;4.18;2.05;;;5.40;99.90;;;;;;5053138;28;20063;-70
2022/12/06 10:00:12;;;;;;;7.75;2.00;;;5.50;99.90;;;;;;5075907;28;20032;-70
2022/12/06 10:03:15;;;;;;;6.15;2.20;;;5.60;99.90;;;;;;5061885;28;20413;-70
2022/12/06 10:06:01;;;;;;;5.15;1.80;;;5.70;99.90;;;;;;5065247;28;20064;-70
2022/12/06 10:08:45;;;;;;;5.15;1.70;;;5.80;99.90;;;;;;5091205;28;20075;-70
2022/12/06 10:11:19;;;;;;;5.28;1.90;;;5.80;99.90;;;;;;5090482;28;20044;-70
2022/12/06 10:13:54;;;;;;;6.95;2.33;;;5.90;99.90;;;;;;5085995;28;20048;-70
2022/12/06 10:16:41;;;;;;;6.93;1.80;;;5.90;99.90;;;;;;5053448;28;20166;-70
2022/12/06 10:19:26;;;;;;;4.00;1.95;;;6.00;99.90;;;;;;5066397;28;20130;-70
2022/12/06 10:22:17;;;;;;;4.95;1.92;;;6.00;99.90;;;;;;5070937;28;20510;-70
2022/12/06 10:25:07;;;;;;;3.13;1.52;;;6.00;99.90;;;;;;5079025;28;20047;-71
2022/12/06 10:27:47;;;;;;;5.55;1.60;;;5.90;99.90;;;;;;5073580;28;20370;-70
2022/12/06 10:30:15;;;;;;;4.97;1.88;;;5.90;99.90;;;;;;5089041;28;20056;-70
2022/12/06 10:32:47;;;;;;;4.05;1.60;;;5.90;99.90;;;;;;5091308;28;20451;-70
2022/12/06 10:35:19;;;;;;;3.70;1.73;;;6.00;99.90;;;;;;5089661;28;20101;-70
2022/12/06 10:37:57;;;;;;;3.05;1.65;;;6.20;99.90;;;;;;5091693;28;20048;-70
2022/12/06 10:40:25;;;;;;;5.40;1.60;;;6.50;99.90;;;;;;5090910;28;20055;-70
2022/12/06 10:43:11;;;;;;;2.65;1.70;;;6.70;99.90;;;;;;5073707;28;20074;-71
2022/12/06 10:48:40;;;;;;;2.15;1.50;;;7.40;99.90;;;;;;5070174;28;20071;-68
2022/12/06 10:51:22;;;;;;;2.47;1.50;;;8.30;99.90;;;;;;5075410;28;20102;-67
2022/12/06 10:53:55;;;;;;;2.65;1.42;;;9.00;99.90;;;;;;5081919;28;20116;-73
2022/12/06 10:56:31;;;;;;;1.55;1.20;;;9.70;99.90;;;;;;5084853;28;20059;-74
2022/12/06 10:59:09;;;;;;;2.35;1.40;;;10.20;99.90;;;;;;5087187;28;20128;-74
2022/12/06 11:01:40;;;;;;;2.55;1.45;;;10.20;99.90;;;;;;5089540;28;20048;-73
2022/12/06 11:04:27;;;;;;;3.25;1.50;;;9.90;99.90;;;;;;5090233;28;20058;-75
2022/12/06 11:06:59;;;;;;;;;;;9.50;99.90;;;;;;5087882;28;20048;-74
2022/12/06 11:09:47;;;;;;;3.90;1.40;;;9.20;99.90;;;;;;5052466;28;20365;-75
2022/12/06 11:12:32;;;;;;;2.40;1.48;;;8.90;99.90;;;;;;5082783;28;20603;-72
2022/12/06 11:15:21;;;;;;;2.55;1.90;;;8.60;99.90;;;;;;5079214;28;20052;-73
2022/12/06 11:18:09;;;;;;;5.72;1.98;;;8.40;99.90;;;;;;5089528;28;20044;-73
2022/12/06 11:20:47;;;;;;;6.50;1.40;;;8.30;99.90;;;;;;5071052;28;20052;-73
2022/12/06 11:23:34;;;;;;;2.83;1.63;;;8.30;99.90;;;;;;5087142;28;20663;-73
2022/12/06 11:26:38;;;;;;;4.75;1.50;;;8.20;99.90;;;;;;5072378;28;20048;-76
2022/12/06 11:29:10;;;;;;;3.17;1.42;;;8.70;99.90;;;;;;5040418;28;20397;-73
2022/12/06 11:31:36;;;;;;;3.15;1.27;;;9.60;99.90;;;;;;5087124;28;20117;-73
2022/12/06 11:34:05;;;;;;;2.78;1.20;;;10.30;99.90;;;;;;5069652;28;20056;-77
2022/12/06 11:36:31;;;;;;;7.65;1.50;;;11.00;99.90;;;;;;5088946;28;20063;-72
2022/12/06 11:38:58;;;;;;;3.45;1.17;;;11.60;99.90;;;;;;5083013;28;20052;-73
2022/12/06 11:41:35;;;;;;;3.97;1.45;;;12.10;99.90;;;;;;5073749;28;20040;-73
2022/12/06 11:44:01;;;;;;;3.85;1.30;;;12.50;99.90;;;;;;5082967;28;20063;-73
2022/12/06 11:46:27;;;;;;;4.53;1.20;;;12.50;99.90;;;;;;5078625;28;20048;-72
2022/12/06 11:48:56;;;;;;;;;;;12.20;99.90;;;;;;5089162;28;20047;-70
2022/12/06 11:51:24;;;;;;;2.97;1.50;;;11.80;99.90;;;;;;5085153;28;20116;-69
2022/12/06 11:53:53;;;;;;;1.85;1.10;;;11.70;99.90;;;;;;5090173;28;20052;-70
2022/12/06 11:56:27;;;;;;;5.47;1.23;;;11.30;99.90;;;;;;5077948;28;20144;-70
2022/12/06 11:59:21;;;;;;;2.83;1.23;;;11.00;99.90;;;;;;5074232;28;20049;-70
2022/12/06 12:01:49;;;;;;;1.85;1.42;;;10.80;99.90;;;;;;5069035;28;20132;-70
2022/12/06 12:04:36;;;;;;;2.80;1.10;;;10.50;99.90;;;;;;5091958;28;20100;-70
2022/12/06 12:07:21;;;;;;;4.38;1.70;;;10.30;99.90;;;;;;5092917;28;20056;-70
2022/12/06 12:10:02;;;;;;;4.18;1.50;;;10.30;99.90;;;;;;5092667;28;20432;-71
2022/12/06 12:15:31;;;;;;;5.18;1.58;;;10.70;99.90;;;;;;5056080;28;20543;-70
2022/12/06 12:17:58;;;;;;;3.80;1.60;;;10.90;99.90;;;;;;5092720;28;20574;-70
2022/12/06 12:20:47;;;;;;;3.13;1.20;;;11.90;99.90;;;;;;5091404;28;20070;-73
2022/12/06 12:23:22;;;;;;;3.08;1.55;;;13.20;99.90;;;;;;5092197;28;20449;-73
2022/12/06 12:26:14;;;;;;;1.80;1.10;;;13.50;99.90;;;;;;5073442;28;20048;-73
2022/12/06 12:28:42;;;;;;;1.70;1.02;;;13.00;99.90;;;;;;5087685;28;20397;-72
2022/12/06 12:31:19;;;;;;;1.30;1.00;;;12.60;99.90;;;;;;5089437;28;20036;-74
2022/12/06 12:33:45;;;;;;;1.83;1.38;;;12.10;99.90;;;;;;5084768;28;20043;-72
2022/12/06 12:36:26;;;;;;;2.38;1.30;;;11.50;99.90;;;;;;5087537;28;20051;-72
2022/12/06 12:39:01;;;;;;;4.13;1.55;;;10.80;99.90;;;;;;5090196;28;20055;-73
2022/12/06 12:41:42;;;;;;;2.88;1.52;;;10.20;99.90;;;;;;5068836;28;20109;-72
2022/12/06 12:44:32;;;;;;;2.83;1.42;;;9.70;99.90;;;;;;5071282;28;20048;-72
2022/12/06 12:47:05;;;;;;;1.85;1.30;;;9.20;99.90;;;;;;5090751;28;20385;-73
2022/12/06 12:49:35;;;;;;;3.58;1.30;;;9.00;99.90;;;;;;5088149;28;20204;-72
2022/12/06 12:52:20;;;;;;;2.10;1.27;;;8.70;99.90;;;;;;5089020;28;20048;-73
2022/12/06 12:55:12;;;;;;;3.53;1.33;;;8.70;99.90;;;;;;5088587;28;20036;-73
2022/12/06 12:57:39;;;;;;;4.68;1.60;;;9.20;99.90;;;;;;5090271;28;20055;-72
2022/12/06 13:00:05;;;;;;;4.93;1.20;;;9.60;99.90;;;;;;5073867;28;20036;-72
2022/12/06 13:02:33;;;;;;;;;;;9.50;99.90;;;;;;5057820;28;20669;-74
2022/12/06 13:05:09;;;;;;;2.67;1.40;;;9.40;99.90;;;;;;5088874;28;19920;-73
2022/12/06 13:07:38;;;;;;;3.70;2.30;;;9.40;99.90;;;;;;5075991;28;20123;-72
2022/12/06 13:10:30;;;;;;;2.22;1.50;;;9.80;99.90;;;;;;5081403;28;20785;-71
2022/12/06 13:13:27;;;;;;;3.67;1.50;;;10.30;99.90;;;;;;5072605;28;20083;-72
2022/12/06 13:15:55;;;;;;;2.50;1.60;;;10.50;99.90;;;;;;5073522;28;20051;-71
2022/12/06 13:18:36;;;;;;;4.40;1.40;;;10.30;99.90;;;;;;5063638;28;20173;-73
2022/12/06 13:21:13;;;;;;;1.38;0.93;;;10.30;99.90;;;;;;5086335;28;20467;-71
2022/12/06 13:23:41;;;;;;;2.35;0.90;;;10.60;99.90;;;;;;5074301;28;20051;-71
2022/12/06 13:26:21;;;;;;;3.42;1.30;;;10.80;99.90;;;;;;5091049;28;20048;-72
2022/12/06 13:28:52;;;;;;;2.33;1.13;;;10.50;99.90;;;;;;5084028;28;20390;-71
2022/12/06 13:31:22;;;;;;;5.35;1.42;;;10.00;99.90;;;;;;5053706;28;20211;-72
2022/12/06 13:33:58;;;;;;;3.15;1.40;;;9.50;99.90;;;;;;5054735;28;20555;-71
2022/12/06 13:36:25;;;;;;;3.10;1.33;;;9.20;99.90;;;;;;5071067;28;20055;-71
2022/12/06 13:38:51;;;;;;;1.95;1.02;;;8.90;99.90;;;;;;5054202;28;20063;-71
2022/12/06 13:44:50;;;;;;;1.40;1.17;;;8.40;99.90;;;;;;5069073;28;20154;-70
2022/12/06 13:47:27;;;;;;;1.40;1.02;;;8.20;99.90;;;;;;5089243;28;20059;-72
2022/12/06 13:49:55;;;;;;;5.65;1.27;;;8.00;99.90;;;;;;5087363;28;20044;-71